sensor_id;sensor_type;location;lat;lon;timestamp;temperature;humidity
70826;SHT31;58446;41.490;22.098;2023-07-08T00:00:21;24.81;64.51
70826;SHT31;58446;41.490;22.098;2023-07-08T00:02:48;24.87;64.39
70826;SHT31;58446;41.490;22.098;2023-07-08T00:05:19;24.67;64.74
70826;SHT31;58446;41.490;22.098;2023-07-08T00:07:46;24.61;64.59
70826;SHT31;58446;41.490;22.098;2023-07-08T00:12:43;24.70;64.24
70826;SHT31;58446;41.490;22.098;2023-07-08T00:15:10;24.78;64.00
70826;SHT31;58446;41.490;22.098;2023-07-08T00:17:36;24.87;63.43
70826;SHT31;58446;41.490;22.098;2023-07-08T00:23:09;24.71;63.91
70826;SHT31;58446;41.490;22.098;2023-07-08T00:25:34;24.88;63.27
70826;SHT31;58446;41.490;22.098;2023-07-08T00:28:00;25.08;62.71
70826;SHT31;58446;41.490;22.098;2023-07-08T00:30:29;25.25;62.25
70826;SHT31;58446;41.490;22.098;2023-07-08T00:32:56;24.97;63.54
70826;SHT31;58446;41.490;22.098;2023-07-08T00:35:36;24.50;64.66
70826;SHT31;58446;41.490;22.098;2023-07-08T00:38:19;24.01;65.70
70826;SHT31;58446;41.490;22.098;2023-07-08T00:40:57;23.47;67.88
70826;SHT31;58446;41.490;22.098;2023-07-08T00:43:37;22.99;68.89
70826;SHT31;58446;41.490;22.098;2023-07-08T00:46:16;23.41;68.22
70826;SHT31;58446;41.490;22.098;2023-07-08T00:48:45;23.41;68.21
70826;SHT31;58446;41.490;22.098;2023-07-08T00:51:11;23.09;69.46
70826;SHT31;58446;41.490;22.098;2023-07-08T00:53:38;22.63;71.77
70826;SHT31;58446;41.490;22.098;2023-07-08T00:56:11;22.52;72.42
70826;SHT31;58446;41.490;22.098;2023-07-08T00:58:53;22.00;74.58
70826;SHT31;58446;41.490;22.098;2023-07-08T01:01:20;22.22;73.74
70826;SHT31;58446;41.490;22.098;2023-07-08T01:03:57;22.44;72.91
70826;SHT31;58446;41.490;22.098;2023-07-08T01:06:28;23.34;69.69
70826;SHT31;58446;41.490;22.098;2023-07-08T01:09:03;23.85;68.26
70826;SHT31;58446;41.490;22.098;2023-07-08T01:11:31;24.02;67.64
70826;SHT31;58446;41.490;22.098;2023-07-08T01:13:59;23.95;67.81
70826;SHT31;58446;41.490;22.098;2023-07-08T01:16:26;23.46;69.58
70826;SHT31;58446;41.490;22.098;2023-07-08T01:18:52;22.97;70.50
70826;SHT31;58446;41.490;22.098;2023-07-08T01:21:39;22.79;70.95
70826;SHT31;58446;41.490;22.098;2023-07-08T01:24:09;22.14;73.24
70826;SHT31;58446;41.490;22.098;2023-07-08T01:26:38;22.48;72.67
70826;SHT31;58446;41.490;22.098;2023-07-08T01:29:05;23.04;70.75
70826;SHT31;58446;41.490;22.098;2023-07-08T01:31:33;23.24;70.11
70826;SHT31;58446;41.490;22.098;2023-07-08T01:33:59;23.65;68.53
70826;SHT31;58446;41.490;22.098;2023-07-08T01:36:26;23.94;67.44
70826;SHT31;58446;41.490;22.098;2023-07-08T01:38:55;24.12;66.87
70826;SHT31;58446;41.490;22.098;2023-07-08T01:41:20;24.20;66.71
70826;SHT31;58446;41.490;22.098;2023-07-08T01:43:46;24.30;66.47
70826;SHT31;58446;41.490;22.098;2023-07-08T01:46:32;24.44;66.13
70826;SHT31;58446;41.490;22.098;2023-07-08T01:48:59;24.02;67.10
70826;SHT31;58446;41.490;22.098;2023-07-08T01:51:26;23.81;67.31
70826;SHT31;58446;41.490;22.098;2023-07-08T01:53:52;23.59;68.33
70826;SHT31;58446;41.490;22.098;2023-07-08T01:56:18;23.65;68.36
70826;SHT31;58446;41.490;22.098;2023-07-08T01:58:44;23.85;67.57
70826;SHT31;58446;41.490;22.098;2023-07-08T02:01:10;23.98;66.98
70826;SHT31;58446;41.490;22.098;2023-07-08T02:03:36;24.15;66.34
70826;SHT31;58446;41.490;22.098;2023-07-08T02:06:02;24.22;66.18
70826;SHT31;58446;41.490;22.098;2023-07-08T02:08:28;24.18;66.28
70826;SHT31;58446;41.490;22.098;2023-07-08T02:10:56;24.10;66.48
70826;SHT31;58446;41.490;22.098;2023-07-08T02:13:23;24.08;66.67
70826;SHT31;58446;41.490;22.098;2023-07-08T02:15:49;23.99;66.40
70826;SHT31;58446;41.490;22.098;2023-07-08T02:18:16;24.01;66.38
70826;SHT31;58446;41.490;22.098;2023-07-08T02:20:44;23.95;65.16
70826;SHT31;58446;41.490;22.098;2023-07-08T02:23:10;24.05;65.89
70826;SHT31;58446;41.490;22.098;2023-07-08T02:25:36;23.28;68.47
70826;SHT31;58446;41.490;22.098;2023-07-08T02:28:02;22.83;69.59
70826;SHT31;58446;41.490;22.098;2023-07-08T02:30:28;23.16;68.96
70826;SHT31;58446;41.490;22.098;2023-07-08T02:32:54;23.44;68.02
70826;SHT31;58446;41.490;22.098;2023-07-08T02:35:24;23.00;69.93
70826;SHT31;58446;41.490;22.098;2023-07-08T02:37:50;22.82;70.36
70826;SHT31;58446;41.490;22.098;2023-07-08T02:40:17;23.37;68.51
70826;SHT31;58446;41.490;22.098;2023-07-08T02:42:42;23.65;67.86
70826;SHT31;58446;41.490;22.098;2023-07-08T02:45:08;23.69;68.02
70826;SHT31;58446;41.490;22.098;2023-07-08T02:47:34;23.67;67.70
70826;SHT31;58446;41.490;22.098;2023-07-08T02:49:59;24.01;66.47
70826;SHT31;58446;41.490;22.098;2023-07-08T02:52:25;24.02;66.33
70826;SHT31;58446;41.490;22.098;2023-07-08T02:54:52;24.15;65.71
70826;SHT31;58446;41.490;22.098;2023-07-08T02:57:17;24.12;65.61
70826;SHT31;58446;41.490;22.098;2023-07-08T02:59:43;24.22;65.07
70826;SHT31;58446;41.490;22.098;2023-07-08T03:02:09;24.20;64.91
70826;SHT31;58446;41.490;22.098;2023-07-08T03:04:34;23.94;65.31
70826;SHT31;58446;41.490;22.098;2023-07-08T03:07:05;23.84;65.43
70826;SHT31;58446;41.490;22.098;2023-07-08T03:09:31;23.44;66.81
70826;SHT31;58446;41.490;22.098;2023-07-08T03:11:58;23.72;65.89
70826;SHT31;58446;41.490;22.098;2023-07-08T03:14:24;23.88;65.31
70826;SHT31;58446;41.490;22.098;2023-07-08T03:16:50;23.72;65.95
70826;SHT31;58446;41.490;22.098;2023-07-08T03:19:15;23.81;65.55
70826;SHT31;58446;41.490;22.098;2023-07-08T03:21:42;23.47;67.52
70826;SHT31;58446;41.490;22.098;2023-07-08T03:24:12;23.69;65.93
70826;SHT31;58446;41.490;22.098;2023-07-08T03:26:39;23.50;67.41
70826;SHT31;58446;41.490;22.098;2023-07-08T03:29:05;23.69;66.22
70826;SHT31;58446;41.490;22.098;2023-07-08T03:31:32;23.86;65.80
70826;SHT31;58446;41.490;22.098;2023-07-08T03:33:58;23.48;67.33
70826;SHT31;58446;41.490;22.098;2023-07-08T03:36:24;23.41;66.94
70826;SHT31;58446;41.490;22.098;2023-07-08T03:38:54;23.50;66.69
70826;SHT31;58446;41.490;22.098;2023-07-08T03:41:21;23.65;66.07
70826;SHT31;58446;41.490;22.098;2023-07-08T03:43:47;23.44;66.29
70826;SHT31;58446;41.490;22.098;2023-07-08T03:46:15;23.68;65.44
70826;SHT31;58446;41.490;22.098;2023-07-08T03:48:40;23.85;64.78
70826;SHT31;58446;41.490;22.098;2023-07-08T03:51:23;23.78;64.73
70826;SHT31;58446;41.490;22.098;2023-07-08T03:53:49;23.79;64.66
70826;SHT31;58446;41.490;22.098;2023-07-08T03:56:15;23.77;64.24
70826;SHT31;58446;41.490;22.098;2023-07-08T03:58:40;23.57;64.79
70826;SHT31;58446;41.490;22.098;2023-07-08T04:01:16;23.65;64.52
70826;SHT31;58446;41.490;22.098;2023-07-08T04:03:43;23.68;64.34
70826;SHT31;58446;41.490;22.098;2023-07-08T04:06:09;23.62;64.29
70826;SHT31;58446;41.490;22.098;2023-07-08T04:08:34;23.20;65.86
70826;SHT31;58446;41.490;22.098;2023-07-08T04:11:00;23.36;65.28
70826;SHT31;58446;41.490;22.098;2023-07-08T04:13:26;23.53;65.06
70826;SHT31;58446;41.490;22.098;2023-07-08T04:15:54;23.79;64.07
70826;SHT31;58446;41.490;22.098;2023-07-08T04:18:20;24.02;63.70
70826;SHT31;58446;41.490;22.098;2023-07-08T04:20:46;23.97;64.21
70826;SHT31;58446;41.490;22.098;2023-07-08T04:23:20;23.94;64.81
70826;SHT31;58446;41.490;22.098;2023-07-08T04:25:49;24.08;64.41
70826;SHT31;58446;41.490;22.098;2023-07-08T04:28:16;24.09;64.50
70826;SHT31;58446;41.490;22.098;2023-07-08T04:30:42;24.12;64.83
70826;SHT31;58446;41.490;22.098;2023-07-08T04:33:12;24.33;63.30
70826;SHT31;58446;41.490;22.098;2023-07-08T04:35:39;24.39;63.83
70826;SHT31;58446;41.490;22.098;2023-07-08T04:38:17;24.61;63.56
70826;SHT31;58446;41.490;22.098;2023-07-08T04:40:43;24.88;61.98
70826;SHT31;58446;41.490;22.098;2023-07-08T04:43:09;25.00;61.57
70826;SHT31;58446;41.490;22.098;2023-07-08T04:45:40;25.01;61.90
70826;SHT31;58446;41.490;22.098;2023-07-08T04:48:11;25.01;61.89
70826;SHT31;58446;41.490;22.098;2023-07-08T04:50:42;25.12;62.65
70826;SHT31;58446;41.490;22.098;2023-07-08T04:53:09;25.45;60.70
70826;SHT31;58446;41.490;22.098;2023-07-08T04:55:40;25.59;61.65
70826;SHT31;58446;41.490;22.098;2023-07-08T04:58:06;25.55;59.62
70826;SHT31;58446;41.490;22.098;2023-07-08T05:00:32;25.48;62.18
70826;SHT31;58446;41.490;22.098;2023-07-08T05:02:57;25.66;60.67
70826;SHT31;58446;41.490;22.098;2023-07-08T05:05:23;25.78;60.52
70826;SHT31;58446;41.490;22.098;2023-07-08T05:07:49;25.72;60.76
70826;SHT31;58446;41.490;22.098;2023-07-08T05:10:15;25.90;60.01
70826;SHT31;58446;41.490;22.098;2023-07-08T05:12:42;26.00;58.63
70826;SHT31;58446;41.490;22.098;2023-07-08T05:15:08;26.16;58.43
70826;SHT31;58446;41.490;22.098;2023-07-08T05:17:34;26.36;59.59
70826;SHT31;58446;41.490;22.098;2023-07-08T05:20:00;26.58;56.84
70826;SHT31;58446;41.490;22.098;2023-07-08T05:22:28;26.45;58.51
70826;SHT31;58446;41.490;22.098;2023-07-08T05:24:54;26.55;57.15
70826;SHT31;58446;41.490;22.098;2023-07-08T05:27:23;26.54;57.82
70826;SHT31;58446;41.490;22.098;2023-07-08T05:29:49;26.64;56.28
70826;SHT31;58446;41.490;22.098;2023-07-08T05:32:16;26.69;57.04
70826;SHT31;58446;41.490;22.098;2023-07-08T05:34:42;26.72;56.51
70826;SHT31;58446;41.490;22.098;2023-07-08T05:37:07;26.89;57.12
70826;SHT31;58446;41.490;22.098;2023-07-08T05:39:33;27.00;56.41
70826;SHT31;58446;41.490;22.098;2023-07-08T05:41:59;27.13;55.81
70826;SHT31;58446;41.490;22.098;2023-07-08T05:44:25;27.33;57.31
70826;SHT31;58446;41.490;22.098;2023-07-08T05:46:51;27.49;55.20
70826;SHT31;58446;41.490;22.098;2023-07-08T05:49:16;27.53;55.69
70826;SHT31;58446;41.490;22.098;2023-07-08T05:51:46;27.71;54.69
70826;SHT31;58446;41.490;22.098;2023-07-08T05:54:12;27.64;53.71
70826;SHT31;58446;41.490;22.098;2023-07-08T05:56:38;27.64;53.86
70826;SHT31;58446;41.490;22.098;2023-07-08T05:59:04;27.74;53.38
70826;SHT31;58446;41.490;22.098;2023-07-08T06:01:30;27.61;55.20
70826;SHT31;58446;41.490;22.098;2023-07-08T06:03:56;27.45;56.83
70826;SHT31;58446;41.490;22.098;2023-07-08T06:06:26;27.29;56.61
70826;SHT31;58446;41.490;22.098;2023-07-08T06:08:53;27.05;55.65
70826;SHT31;58446;41.490;22.098;2023-07-08T06:11:19;27.08;54.93
70826;SHT31;58446;41.490;22.098;2023-07-08T06:13:45;26.88;56.96
70826;SHT31;58446;41.490;22.098;2023-07-08T06:16:10;26.87;56.64
70826;SHT31;58446;41.490;22.098;2023-07-08T06:18:36;26.74;56.08
70826;SHT31;58446;41.490;22.098;2023-07-08T06:21:02;26.43;56.44
70826;SHT31;58446;41.490;22.098;2023-07-08T06:23:28;26.26;56.46
70826;SHT31;58446;41.490;22.098;2023-07-08T06:25:54;26.21;56.54
70826;SHT31;58446;41.490;22.098;2023-07-08T06:28:20;26.28;57.24
70826;SHT31;58446;41.490;22.098;2023-07-08T06:30:46;26.28;56.40
70826;SHT31;58446;41.490;22.098;2023-07-08T06:33:12;26.17;56.06
70826;SHT31;58446;41.490;22.098;2023-07-08T06:35:39;26.16;56.11
70826;SHT31;58446;41.490;22.098;2023-07-08T06:38:05;26.23;55.78
70826;SHT31;58446;41.490;22.098;2023-07-08T06:40:32;26.36;56.36
70826;SHT31;58446;41.490;22.098;2023-07-08T06:42:58;26.61;57.27
70826;SHT31;58446;41.490;22.098;2023-07-08T06:45:24;26.87;54.69
70826;SHT31;58446;41.490;22.098;2023-07-08T06:47:49;27.02;55.04
70826;SHT31;58446;41.490;22.098;2023-07-08T06:50:15;27.20;53.77
70826;SHT31;58446;41.490;22.098;2023-07-08T06:52:41;27.19;53.88
70826;SHT31;58446;41.490;22.098;2023-07-08T06:55:09;26.92;53.75
70826;SHT31;58446;41.490;22.098;2023-07-08T06:57:35;26.81;54.09
70826;SHT31;58446;41.490;22.098;2023-07-08T07:00:03;26.94;53.59
70826;SHT31;58446;41.490;22.098;2023-07-08T07:02:29;26.75;53.58
70826;SHT31;58446;41.490;22.098;2023-07-08T07:04:55;26.84;54.15
70826;SHT31;58446;41.490;22.098;2023-07-08T07:07:21;26.96;53.92
70826;SHT31;58446;41.490;22.098;2023-07-08T07:09:46;26.78;53.48
70826;SHT31;58446;41.490;22.098;2023-07-08T07:12:12;26.82;53.12
70826;SHT31;58446;41.490;22.098;2023-07-08T07:14:38;26.82;53.62
70826;SHT31;58446;41.490;22.098;2023-07-08T07:17:04;26.61;54.06
70826;SHT31;58446;41.490;22.098;2023-07-08T07:19:29;26.75;53.11
70826;SHT31;58446;41.490;22.098;2023-07-08T07:21:55;26.92;53.01
70826;SHT31;58446;41.490;22.098;2023-07-08T07:24:21;26.99;52.76
70826;SHT31;58446;41.490;22.098;2023-07-08T07:26:46;26.94;52.75
70826;SHT31;58446;41.490;22.098;2023-07-08T07:29:17;26.81;52.63
70826;SHT31;58446;41.490;22.098;2023-07-08T07:31:43;26.81;53.03
70826;SHT31;58446;41.490;22.098;2023-07-08T07:34:09;26.79;53.25
70826;SHT31;58446;41.490;22.098;2023-07-08T07:36:37;27.05;52.64
70826;SHT31;58446;41.490;22.098;2023-07-08T07:39:03;27.09;52.08
70826;SHT31;58446;41.490;22.098;2023-07-08T07:41:28;27.10;52.12
70826;SHT31;58446;41.490;22.098;2023-07-08T07:43:54;27.00;52.37
70826;SHT31;58446;41.490;22.098;2023-07-08T07:46:21;27.15;52.20
70826;SHT31;58446;41.490;22.098;2023-07-08T07:48:47;27.16;52.51
70826;SHT31;58446;41.490;22.098;2023-07-08T07:51:12;27.23;52.19
70826;SHT31;58446;41.490;22.098;2023-07-08T07:53:39;27.36;51.45
70826;SHT31;58446;41.490;22.098;2023-07-08T07:56:05;27.51;52.20
70826;SHT31;58446;41.490;22.098;2023-07-08T07:58:31;27.80;50.55
70826;SHT31;58446;41.490;22.098;2023-07-08T08:00:57;27.73;51.11
70826;SHT31;58446;41.490;22.098;2023-07-08T08:03:23;27.88;50.38
70826;SHT31;58446;41.490;22.098;2023-07-08T08:05:49;27.86;50.14
70826;SHT31;58446;41.490;22.098;2023-07-08T08:08:15;27.73;50.84
70826;SHT31;58446;41.490;22.098;2023-07-08T08:10:43;27.80;49.72
70826;SHT31;58446;41.490;22.098;2023-07-08T08:13:09;27.49;50.06
70826;SHT31;58446;41.490;22.098;2023-07-08T08:15:35;27.46;50.41
70826;SHT31;58446;41.490;22.098;2023-07-08T08:18:01;27.53;49.78
70826;SHT31;58446;41.490;22.098;2023-07-08T08:20:27;27.51;49.99
70826;SHT31;58446;41.490;22.098;2023-07-08T08:22:53;27.54;51.10
70826;SHT31;58446;41.490;22.098;2023-07-08T08:25:20;27.53;50.56
70826;SHT31;58446;41.490;22.098;2023-07-08T08:27:46;27.54;50.36
70826;SHT31;58446;41.490;22.098;2023-07-08T08:30:12;27.46;49.78
70826;SHT31;58446;41.490;22.098;2023-07-08T08:32:38;27.53;49.79
70826;SHT31;58446;41.490;22.098;2023-07-08T08:35:04;27.60;49.56
70826;SHT31;58446;41.490;22.098;2023-07-08T08:37:30;27.66;47.97
70826;SHT31;58446;41.490;22.098;2023-07-08T08:39:56;27.57;46.96
70826;SHT31;58446;41.490;22.098;2023-07-08T08:44:53;27.28;46.86
70826;SHT31;58446;41.490;22.098;2023-07-08T08:50:16;27.54;47.45
70826;SHT31;58446;41.490;22.098;2023-07-08T08:52:46;27.73;47.19
70826;SHT31;58446;41.490;22.098;2023-07-08T08:55:13;27.76;47.06
70826;SHT31;58446;41.490;22.098;2023-07-08T08:57:47;27.83;46.87
70826;SHT31;58446;41.490;22.098;2023-07-08T09:00:21;27.94;47.82
70826;SHT31;58446;41.490;22.098;2023-07-08T09:05:15;27.78;47.05
70826;SHT31;58446;41.490;22.098;2023-07-08T09:07:53;27.93;46.89
70826;SHT31;58446;41.490;22.098;2023-07-08T09:13:36;28.12;46.86
70826;SHT31;58446;41.490;22.098;2023-07-08T09:19:14;28.09;47.42
70826;SHT31;58446;41.490;22.098;2023-07-08T09:24:43;27.94;47.81
70826;SHT31;58446;41.490;22.098;2023-07-08T09:27:10;27.98;47.25
70826;SHT31;58446;41.490;22.098;2023-07-08T09:29:36;28.05;46.16
70826;SHT31;58446;41.490;22.098;2023-07-08T09:32:19;28.28;45.86
70826;SHT31;58446;41.490;22.098;2023-07-08T09:39:52;28.46;46.49
70826;SHT31;58446;41.490;22.098;2023-07-08T09:42:19;28.84;46.02
70826;SHT31;58446;41.490;22.098;2023-07-08T09:44:46;28.99;44.68
70826;SHT31;58446;41.490;22.098;2023-07-08T09:47:44;28.97;45.04
70826;SHT31;58446;41.490;22.098;2023-07-08T09:50:22;28.95;46.71
70826;SHT31;58446;41.490;22.098;2023-07-08T09:52:51;28.77;45.03
70826;SHT31;58446;41.490;22.098;2023-07-08T09:55:18;28.29;45.18
70826;SHT31;58446;41.490;22.098;2023-07-08T09:57:45;28.19;44.88
70826;SHT31;58446;41.490;22.098;2023-07-08T10:00:15;28.29;44.65
70826;SHT31;58446;41.490;22.098;2023-07-08T10:02:49;28.45;44.73
70826;SHT31;58446;41.490;22.098;2023-07-08T10:05:24;28.69;45.29
70826;SHT31;58446;41.490;22.098;2023-07-08T10:07:56;28.69;44.52
70826;SHT31;58446;41.490;22.098;2023-07-08T10:10:28;28.56;44.40
70826;SHT31;58446;41.490;22.098;2023-07-08T10:12:58;28.48;44.54
70826;SHT31;58446;41.490;22.098;2023-07-08T10:15:36;28.34;44.40
70826;SHT31;58446;41.490;22.098;2023-07-08T10:18:03;28.21;44.55
70826;SHT31;58446;41.490;22.098;2023-07-08T10:20:37;28.39;44.39
70826;SHT31;58446;41.490;22.098;2023-07-08T10:23:29;28.52;44.20
70826;SHT31;58446;41.490;22.098;2023-07-08T10:32:07;29.14;44.50
70826;SHT31;58446;41.490;22.098;2023-07-08T10:39:55;28.83;43.52
70826;SHT31;58446;41.490;22.098;2023-07-08T10:42:38;28.79;43.93
70826;SHT31;58446;41.490;22.098;2023-07-08T10:45:18;28.89;43.44
70826;SHT31;58446;41.490;22.098;2023-07-08T10:50:42;28.83;44.18
70826;SHT31;58446;41.490;22.098;2023-07-08T10:56:21;29.07;43.67
70826;SHT31;58446;41.490;22.098;2023-07-08T10:58:53;29.00;43.51
70826;SHT31;58446;41.490;22.098;2023-07-08T11:07:00;29.23;42.99
70826;SHT31;58446;41.490;22.098;2023-07-08T11:09:51;29.35;42.40
70826;SHT31;58446;41.490;22.098;2023-07-08T11:12:34;29.27;41.92
70826;SHT31;58446;41.490;22.098;2023-07-08T11:15:42;29.08;42.33
70826;SHT31;58446;41.490;22.098;2023-07-08T11:18:17;29.04;42.42
70826;SHT31;58446;41.490;22.098;2023-07-08T11:20:59;29.11;41.99
70826;SHT31;58446;41.490;22.098;2023-07-08T11:23:38;29.08;41.62
70826;SHT31;58446;41.490;22.098;2023-07-08T11:28:37;29.23;41.41
70826;SHT31;58446;41.490;22.098;2023-07-08T11:31:04;29.38;40.38
70826;SHT31;58446;41.490;22.098;2023-07-08T11:33:30;29.59;41.09
70826;SHT31;58446;41.490;22.098;2023-07-08T11:35:58;29.77;40.83
70826;SHT31;58446;41.490;22.098;2023-07-08T11:38:26;29.78;40.23
70826;SHT31;58446;41.490;22.098;2023-07-08T11:41:04;29.85;39.32
70826;SHT31;58446;41.490;22.098;2023-07-08T11:43:59;30.01;38.90
70826;SHT31;58446;41.490;22.098;2023-07-08T11:46:31;30.04;38.36
70826;SHT31;58446;41.490;22.098;2023-07-08T11:49:06;30.01;38.26
70826;SHT31;58446;41.490;22.098;2023-07-08T11:51:39;29.96;38.30
70826;SHT31;58446;41.490;22.098;2023-07-08T11:59:24;30.06;37.13
70826;SHT31;58446;41.490;22.098;2023-07-08T12:04:34;30.10;37.47
70826;SHT31;58446;41.490;22.098;2023-07-08T12:07:06;30.15;37.10
70826;SHT31;58446;41.490;22.098;2023-07-08T12:09:44;29.95;37.14
70826;SHT31;58446;41.490;22.098;2023-07-08T12:12:21;29.71;37.12
70826;SHT31;58446;41.490;22.098;2023-07-08T12:14:47;29.75;37.07
70826;SHT31;58446;41.490;22.098;2023-07-08T12:17:14;29.93;37.11
70826;SHT31;58446;41.490;22.098;2023-07-08T12:19:42;30.06;36.75
70826;SHT31;58446;41.490;22.098;2023-07-08T12:22:10;30.08;36.86
70826;SHT31;58446;41.490;22.098;2023-07-08T12:24:40;30.04;36.81
70826;SHT31;58446;41.490;22.098;2023-07-08T12:27:08;29.95;36.90
70826;SHT31;58446;41.490;22.098;2023-07-08T12:29:34;29.86;37.17
70826;SHT31;58446;41.490;22.098;2023-07-08T12:32:00;29.79;37.33
70826;SHT31;58446;41.490;22.098;2023-07-08T12:34:26;29.71;37.07
70826;SHT31;58446;41.490;22.098;2023-07-08T12:36:52;29.72;37.25
70826;SHT31;58446;41.490;22.098;2023-07-08T12:39:18;29.64;37.00
70826;SHT31;58446;41.490;22.098;2023-07-08T12:41:45;29.77;36.90
70826;SHT31;58446;41.490;22.098;2023-07-08T12:44:17;29.74;37.15
70826;SHT31;58446;41.490;22.098;2023-07-08T12:46:45;29.79;36.93
70826;SHT31;58446;41.490;22.098;2023-07-08T12:49:13;29.90;37.28
70826;SHT31;58446;41.490;22.098;2023-07-08T12:51:42;29.78;36.79
70826;SHT31;58446;41.490;22.098;2023-07-08T12:54:09;29.79;36.84
70826;SHT31;58446;41.490;22.098;2023-07-08T12:56:36;29.86;36.36
70826;SHT31;58446;41.490;22.098;2023-07-08T12:59:04;29.84;35.72
70826;SHT31;58446;41.490;22.098;2023-07-08T13:01:32;29.95;35.36
70826;SHT31;58446;41.490;22.098;2023-07-08T13:04:09;29.96;35.02
70826;SHT31;58446;41.490;22.098;2023-07-08T13:06:36;29.98;35.29
70826;SHT31;58446;41.490;22.098;2023-07-08T13:09:54;29.96;35.93
70826;SHT31;58446;41.490;22.098;2023-07-08T13:11:56;29.85;36.08
70826;SHT31;58446;41.490;22.098;2023-07-08T13:14:24;30.01;36.31
70826;SHT31;58446;41.490;22.098;2023-07-08T13:16:50;29.99;35.32
70826;SHT31;58446;41.490;22.098;2023-07-08T13:19:16;29.95;34.98
70826;SHT31;58446;41.490;22.098;2023-07-08T13:21:42;30.08;34.98
70826;SHT31;58446;41.490;22.098;2023-07-08T13:24:09;30.20;35.09
70826;SHT31;58446;41.490;22.098;2023-07-08T13:26:36;30.13;34.96
70826;SHT31;58446;41.490;22.098;2023-07-08T13:29:14;30.09;35.65
70826;SHT31;58446;41.490;22.098;2023-07-08T13:31:52;29.95;35.69
70826;SHT31;58446;41.490;22.098;2023-07-08T13:34:19;29.90;35.52
70826;SHT31;58446;41.490;22.098;2023-07-08T13:36:49;29.89;35.56
70826;SHT31;58446;41.490;22.098;2023-07-08T13:39:33;29.82;35.81
70826;SHT31;58446;41.490;22.098;2023-07-08T13:42:02;29.86;35.94
70826;SHT31;58446;41.490;22.098;2023-07-08T13:44:29;29.93;36.03
70826;SHT31;58446;41.490;22.098;2023-07-08T13:46:59;30.06;36.00
70826;SHT31;58446;41.490;22.098;2023-07-08T13:49:40;30.16;35.85
70826;SHT31;58446;41.490;22.098;2023-07-08T13:52:17;30.05;35.89
70826;SHT31;58446;41.490;22.098;2023-07-08T13:54:49;30.04;35.52
70826;SHT31;58446;41.490;22.098;2023-07-08T13:57:17;30.01;35.60
70826;SHT31;58446;41.490;22.098;2023-07-08T13:59:43;29.88;35.73
70826;SHT31;58446;41.490;22.098;2023-07-08T14:02:22;29.72;35.92
70826;SHT31;58446;41.490;22.098;2023-07-08T14:04:49;29.71;35.89
70826;SHT31;58446;41.490;22.098;2023-07-08T14:07:19;29.84;35.90
70826;SHT31;58446;41.490;22.098;2023-07-08T14:09:46;29.98;35.90
70826;SHT31;58446;41.490;22.098;2023-07-08T14:12:11;29.92;36.03
70826;SHT31;58446;41.490;22.098;2023-07-08T14:14:37;29.75;35.90
70826;SHT31;58446;41.490;22.098;2023-07-08T14:17:03;29.75;36.16
70826;SHT31;58446;41.490;22.098;2023-07-08T14:19:31;29.86;35.83
70826;SHT31;58446;41.490;22.098;2023-07-08T14:22:06;29.90;35.97
70826;SHT31;58446;41.490;22.098;2023-07-08T14:24:39;29.85;35.72
70826;SHT31;58446;41.490;22.098;2023-07-08T14:27:08;29.75;35.63
70826;SHT31;58446;41.490;22.098;2023-07-08T14:29:40;29.79;35.33
70826;SHT31;58446;41.490;22.098;2023-07-08T14:32:18;29.75;35.43
70826;SHT31;58446;41.490;22.098;2023-07-08T14:34:54;29.75;35.18
70826;SHT31;58446;41.490;22.098;2023-07-08T14:37:20;29.65;34.90
70826;SHT31;58446;41.490;22.098;2023-07-08T14:39:48;29.68;34.78
70826;SHT31;58446;41.490;22.098;2023-07-08T14:42:16;29.79;34.72
70826;SHT31;58446;41.490;22.098;2023-07-08T14:44:44;29.71;34.66
70826;SHT31;58446;41.490;22.098;2023-07-08T14:47:13;29.68;35.10
70826;SHT31;58446;41.490;22.098;2023-07-08T14:49:39;29.78;35.40
70826;SHT31;58446;41.490;22.098;2023-07-08T14:52:06;29.81;35.34
70826;SHT31;58446;41.490;22.098;2023-07-08T14:54:32;29.74;35.66
70826;SHT31;58446;41.490;22.098;2023-07-08T14:56:58;29.74;35.36
70826;SHT31;58446;41.490;22.098;2023-07-08T14:59:25;29.77;34.80
70826;SHT31;58446;41.490;22.098;2023-07-08T15:01:54;29.85;34.63
70826;SHT31;58446;41.490;22.098;2023-07-08T15:04:21;29.84;34.71
70826;SHT31;58446;41.490;22.098;2023-07-08T15:06:47;29.82;35.65
70826;SHT31;58446;41.490;22.098;2023-07-08T15:09:14;29.79;35.58
70826;SHT31;58446;41.490;22.098;2023-07-08T15:11:42;29.71;35.14
70826;SHT31;58446;41.490;22.098;2023-07-08T15:14:16;29.69;34.86
70826;SHT31;58446;41.490;22.098;2023-07-08T15:16:42;29.65;34.99
70826;SHT31;58446;41.490;22.098;2023-07-08T15:19:11;29.58;35.16
70826;SHT31;58446;41.490;22.098;2023-07-08T15:21:40;29.50;35.38
70826;SHT31;58446;41.490;22.098;2023-07-08T15:24:11;29.54;35.24
70826;SHT31;58446;41.490;22.098;2023-07-08T15:26:38;29.48;35.37
70826;SHT31;58446;41.490;22.098;2023-07-08T15:29:04;29.51;35.57
70826;SHT31;58446;41.490;22.098;2023-07-08T15:31:32;29.50;35.45
70826;SHT31;58446;41.490;22.098;2023-07-08T15:33:59;29.48;35.26
70826;SHT31;58446;41.490;22.098;2023-07-08T15:36:24;29.50;35.16
70826;SHT31;58446;41.490;22.098;2023-07-08T15:38:50;29.48;35.26
70826;SHT31;58446;41.490;22.098;2023-07-08T15:43:44;29.39;34.91
70826;SHT31;58446;41.490;22.098;2023-07-08T15:46:10;29.38;34.98
70826;SHT31;58446;41.490;22.098;2023-07-08T15:48:36;29.46;35.05
70826;SHT31;58446;41.490;22.098;2023-07-08T15:51:02;29.47;35.09
70826;SHT31;58446;41.490;22.098;2023-07-08T15:53:27;29.44;35.20
70826;SHT31;58446;41.490;22.098;2023-07-08T15:55:53;29.44;34.91
70826;SHT31;58446;41.490;22.098;2023-07-08T15:58:27;29.37;34.77
70826;SHT31;58446;41.490;22.098;2023-07-08T16:00:53;29.30;34.20
70826;SHT31;58446;41.490;22.098;2023-07-08T16:03:29;29.24;34.24
70826;SHT31;58446;41.490;22.098;2023-07-08T16:05:56;29.21;34.32
70826;SHT31;58446;41.490;22.098;2023-07-08T16:08:23;29.21;34.47
70826;SHT31;58446;41.490;22.098;2023-07-08T16:11:13;29.18;34.56
70826;SHT31;58446;41.490;22.098;2023-07-08T16:13:41;29.20;34.55
70826;SHT31;58446;41.490;22.098;2023-07-08T16:16:10;29.18;34.55
70826;SHT31;58446;41.490;22.098;2023-07-08T16:18:35;29.13;34.54
70826;SHT31;58446;41.490;22.098;2023-07-08T16:21:02;29.16;34.70
70826;SHT31;58446;41.490;22.098;2023-07-08T16:23:29;29.13;34.47
70826;SHT31;58446;41.490;22.098;2023-07-08T16:25:55;29.10;34.34
70826;SHT31;58446;41.490;22.098;2023-07-08T16:30:55;29.06;34.43